sensor_id;sensor_type;location;lat;lon;timestamp;P1;durP1;ratioP1;P2;durP2;ratioP2
2452;SDS011;63678;47.994;7.854;2023-06-22T00:00:32;20.35;;;8.00;;
2452;SDS011;63678;47.994;7.854;2023-06-22T00:03:04;22.17;;;8.40;;
2452;SDS011;63678;47.994;7.854;2023-06-22T00:05:36;15.30;;;8.00;;
2452;SDS011;63678;47.994;7.854;2023-06-22T00:08:10;18.05;;;7.93;;
2452;SDS011;63678;47.994;7.854;2023-06-22T00:10:42;15.07;;;7.40;;
2452;SDS011;63678;47.994;7.854;2023-06-22T00:13:16;17.83;;;7.88;;
2452;SDS011;63678;47.994;7.854;2023-06-22T00:15:49;16.80;;;7.70;;
2452;SDS011;63678;47.994;7.854;2023-06-22T00:18:21;18.17;;;8.60;;
2452;SDS011;63678;47.994;7.854;2023-06-22T00:20:57;16.98;;;8.63;;
2452;SDS011;63678;47.994;7.854;2023-06-22T00:23:30;15.47;;;7.67;;
2452;SDS011;63678;47.994;7.854;2023-06-22T00:26:05;15.93;;;8.45;;
2452;SDS011;63678;47.994;7.854;2023-06-22T00:28:38;13.57;;;7.55;;
2452;SDS011;63678;47.994;7.854;2023-06-22T00:31:10;15.20;;;7.88;;
2452;SDS011;63678;47.994;7.854;2023-06-22T00:33:42;13.63;;;7.10;;
2452;SDS011;63678;47.994;7.854;2023-06-22T00:36:14;18.00;;;7.20;;
2452;SDS011;63678;47.994;7.854;2023-06-22T00:38:47;17.73;;;8.32;;
2452;SDS011;63678;47.994;7.854;2023-06-22T00:41:22;11.43;;;6.95;;
2452;SDS011;63678;47.994;7.854;2023-06-22T00:43:54;12.70;;;7.38;;
2452;SDS011;63678;47.994;7.854;2023-06-22T00:46:27;12.43;;;7.57;;
2452;SDS011;63678;47.994;7.854;2023-06-22T00:49:00;13.50;;;7.80;;
2452;SDS011;63678;47.994;7.854;2023-06-22T00:51:32;11.35;;;7.72;;
2452;SDS011;63678;47.994;7.854;2023-06-22T00:54:05;14.82;;;7.40;;
2452;SDS011;63678;47.994;7.854;2023-06-22T00:56:37;16.02;;;7.82;;
2452;SDS011;63678;47.994;7.854;2023-06-22T00:59:11;17.10;;;8.07;;
2452;SDS011;63678;47.994;7.854;2023-06-22T01:01:45;13.33;;;7.27;;
2452;SDS011;63678;47.994;7.854;2023-06-22T01:04:18;15.75;;;7.65;;
2452;SDS011;63678;47.994;7.854;2023-06-22T01:07:02;14.85;;;6.93;;
2452;SDS011;63678;47.994;7.854;2023-06-22T01:10:03;19.80;;;8.00;;
2452;SDS011;63678;47.994;7.854;2023-06-22T01:12:45;15.35;;;7.85;;
2452;SDS011;63678;47.994;7.854;2023-06-22T01:15:31;16.47;;;7.60;;
2452;SDS011;63678;47.994;7.854;2023-06-22T01:18:13;17.60;;;7.78;;
2452;SDS011;63678;47.994;7.854;2023-06-22T01:20:49;18.45;;;7.97;;
2452;SDS011;63678;47.994;7.854;2023-06-22T01:26:40;14.27;;;7.35;;
2452;SDS011;63678;47.994;7.854;2023-06-22T01:29:30;12.40;;;7.03;;
2452;SDS011;63678;47.994;7.854;2023-06-22T01:32:03;22.25;;;8.32;;
2452;SDS011;63678;47.994;7.854;2023-06-22T01:34:40;15.80;;;7.93;;
2452;SDS011;63678;47.994;7.854;2023-06-22T01:37:13;16.60;;;8.32;;
2452;SDS011;63678;47.994;7.854;2023-06-22T01:39:46;18.15;;;8.38;;
2452;SDS011;63678;47.994;7.854;2023-06-22T01:42:19;15.73;;;8.30;;
2452;SDS011;63678;47.994;7.854;2023-06-22T01:44:52;15.65;;;7.63;;
2452;SDS011;63678;47.994;7.854;2023-06-22T01:47:25;14.32;;;7.38;;
2452;SDS011;63678;47.994;7.854;2023-06-22T01:49:59;16.30;;;8.27;;
2452;SDS011;63678;47.994;7.854;2023-06-22T01:52:32;18.58;;;7.70;;
2452;SDS011;63678;47.994;7.854;2023-06-22T01:55:05;17.10;;;7.80;;
2452;SDS011;63678;47.994;7.854;2023-06-22T01:57:40;13.98;;;7.72;;
2452;SDS011;63678;47.994;7.854;2023-06-22T02:00:14;16.80;;;7.90;;
2452;SDS011;63678;47.994;7.854;2023-06-22T02:03:01;14.00;;;7.68;;
2452;SDS011;63678;47.994;7.854;2023-06-22T02:05:43;14.88;;;7.45;;
2452;SDS011;63678;47.994;7.854;2023-06-22T02:08:22;15.40;;;7.50;;
2452;SDS011;63678;47.994;7.854;2023-06-22T02:11:03;13.30;;;7.68;;
2452;SDS011;63678;47.994;7.854;2023-06-22T02:13:37;19.20;;;7.75;;
2452;SDS011;63678;47.994;7.854;2023-06-22T02:16:15;18.40;;;7.90;;
2452;SDS011;63678;47.994;7.854;2023-06-22T02:18:50;15.82;;;7.88;;
2452;SDS011;63678;47.994;7.854;2023-06-22T02:21:23;13.07;;;7.53;;
2452;SDS011;63678;47.994;7.854;2023-06-22T02:23:56;15.90;;;7.65;;
2452;SDS011;63678;47.994;7.854;2023-06-22T02:26:28;13.63;;;7.47;;
2452;SDS011;63678;47.994;7.854;2023-06-22T02:29:01;12.70;;;7.03;;
2452;SDS011;63678;47.994;7.854;2023-06-22T02:31:34;14.38;;;7.25;;
2452;SDS011;63678;47.994;7.854;2023-06-22T02:34:06;17.70;;;7.60;;
2452;SDS011;63678;47.994;7.854;2023-06-22T02:36:38;17.77;;;7.18;;
2452;SDS011;63678;47.994;7.854;2023-06-22T02:39:11;18.08;;;7.82;;
2452;SDS011;63678;47.994;7.854;2023-06-22T02:41:43;13.10;;;7.50;;
2452;SDS011;63678;47.994;7.854;2023-06-22T02:44:16;15.25;;;7.20;;
2452;SDS011;63678;47.994;7.854;2023-06-22T02:46:52;15.67;;;7.43;;
2452;SDS011;63678;47.994;7.854;2023-06-22T02:49:26;14.55;;;7.18;;
2452;SDS011;63678;47.994;7.854;2023-06-22T02:51:58;18.55;;;8.07;;
2452;SDS011;63678;47.994;7.854;2023-06-22T02:54:31;18.23;;;7.45;;
2452;SDS011;63678;47.994;7.854;2023-06-22T02:57:05;13.68;;;7.43;;
2452;SDS011;63678;47.994;7.854;2023-06-22T02:59:37;19.47;;;7.83;;
2452;SDS011;63678;47.994;7.854;2023-06-22T03:02:14;14.70;;;7.70;;
2452;SDS011;63678;47.994;7.854;2023-06-22T03:04:47;15.30;;;7.63;;
2452;SDS011;63678;47.994;7.854;2023-06-22T03:07:21;16.42;;;7.60;;
2452;SDS011;63678;47.994;7.854;2023-06-22T03:09:55;16.48;;;7.25;;
2452;SDS011;63678;47.994;7.854;2023-06-22T03:12:28;16.87;;;7.43;;
2452;SDS011;63678;47.994;7.854;2023-06-22T03:15:00;16.65;;;7.32;;
2452;SDS011;63678;47.994;7.854;2023-06-22T03:17:36;14.35;;;7.53;;
2452;SDS011;63678;47.994;7.854;2023-06-22T03:20:13;14.65;;;7.35;;
2452;SDS011;63678;47.994;7.854;2023-06-22T03:22:45;12.75;;;7.25;;
2452;SDS011;63678;47.994;7.854;2023-06-22T03:25:18;13.77;;;7.33;;
2452;SDS011;63678;47.994;7.854;2023-06-22T03:27:54;15.27;;;7.80;;
2452;SDS011;63678;47.994;7.854;2023-06-22T03:30:27;16.92;;;8.02;;
2452;SDS011;63678;47.994;7.854;2023-06-22T03:33:00;17.42;;;8.20;;
2452;SDS011;63678;47.994;7.854;2023-06-22T03:35:34;13.55;;;8.10;;
2452;SDS011;63678;47.994;7.854;2023-06-22T03:38:06;15.67;;;8.23;;
2452;SDS011;63678;47.994;7.854;2023-06-22T03:40:38;14.20;;;8.18;;
2452;SDS011;63678;47.994;7.854;2023-06-22T03:43:11;13.75;;;8.02;;
2452;SDS011;63678;47.994;7.854;2023-06-22T03:45:43;19.20;;;8.40;;
2452;SDS011;63678;47.994;7.854;2023-06-22T03:48:17;19.77;;;8.13;;
2452;SDS011;63678;47.994;7.854;2023-06-22T03:50:50;19.90;;;8.47;;
2452;SDS011;63678;47.994;7.854;2023-06-22T03:56:37;17.08;;;7.43;;
2452;SDS011;63678;47.994;7.854;2023-06-22T03:59:10;18.42;;;8.60;;
2452;SDS011;63678;47.994;7.854;2023-06-22T04:01:42;14.48;;;7.90;;
2452;SDS011;63678;47.994;7.854;2023-06-22T04:04:16;15.70;;;7.87;;
2452;SDS011;63678;47.994;7.854;2023-06-22T04:06:49;14.05;;;7.78;;
2452;SDS011;63678;47.994;7.854;2023-06-22T04:09:22;19.27;;;8.35;;
2452;SDS011;63678;47.994;7.854;2023-06-22T04:11:55;16.70;;;8.20;;
2452;SDS011;63678;47.994;7.854;2023-06-22T04:14:27;19.35;;;9.07;;
2452;SDS011;63678;47.994;7.854;2023-06-22T04:16:59;21.63;;;8.37;;
2452;SDS011;63678;47.994;7.854;2023-06-22T04:19:33;20.80;;;9.18;;
2452;SDS011;63678;47.994;7.854;2023-06-22T04:22:05;20.13;;;8.02;;
2452;SDS011;63678;47.994;7.854;2023-06-22T04:24:39;17.15;;;8.27;;
2452;SDS011;63678;47.994;7.854;2023-06-22T04:27:12;17.00;;;8.50;;
2452;SDS011;63678;47.994;7.854;2023-06-22T04:29:44;17.27;;;9.27;;
2452;SDS011;63678;47.994;7.854;2023-06-22T04:32:20;15.80;;;8.25;;
2452;SDS011;63678;47.994;7.854;2023-06-22T04:34:52;18.77;;;9.25;;
2452;SDS011;63678;47.994;7.854;2023-06-22T04:37:25;17.88;;;8.60;;
2452;SDS011;63678;47.994;7.854;2023-06-22T04:39:57;14.52;;;7.82;;
2452;SDS011;63678;47.994;7.854;2023-06-22T04:42:30;18.63;;;9.40;;
2452;SDS011;63678;47.994;7.854;2023-06-22T04:45:05;13.35;;;7.72;;
2452;SDS011;63678;47.994;7.854;2023-06-22T04:47:38;14.70;;;8.88;;
2452;SDS011;63678;47.994;7.854;2023-06-22T04:50:11;14.57;;;8.10;;
2452;SDS011;63678;47.994;7.854;2023-06-22T04:52:44;16.40;;;8.05;;
2452;SDS011;63678;47.994;7.854;2023-06-22T04:55:20;14.27;;;8.17;;
2452;SDS011;63678;47.994;7.854;2023-06-22T04:58:13;17.30;;;8.38;;
2452;SDS011;63678;47.994;7.854;2023-06-22T05:00:46;15.32;;;8.50;;
2452;SDS011;63678;47.994;7.854;2023-06-22T05:03:22;16.33;;;7.93;;
2452;SDS011;63678;47.994;7.854;2023-06-22T05:05:57;15.27;;;8.48;;
2452;SDS011;63678;47.994;7.854;2023-06-22T05:08:30;17.20;;;8.37;;
2452;SDS011;63678;47.994;7.854;2023-06-22T05:11:03;17.48;;;8.88;;
2452;SDS011;63678;47.994;7.854;2023-06-22T05:13:39;15.73;;;8.60;;
2452;SDS011;63678;47.994;7.854;2023-06-22T05:16:12;16.70;;;9.02;;
2452;SDS011;63678;47.994;7.854;2023-06-22T05:18:44;16.42;;;8.90;;
2452;SDS011;63678;47.994;7.854;2023-06-22T05:21:18;15.70;;;8.60;;
2452;SDS011;63678;47.994;7.854;2023-06-22T05:23:51;16.33;;;9.00;;
2452;SDS011;63678;47.994;7.854;2023-06-22T05:26:26;19.38;;;9.55;;
2452;SDS011;63678;47.994;7.854;2023-06-22T05:28:59;20.13;;;9.10;;
2452;SDS011;63678;47.994;7.854;2023-06-22T05:31:34;19.05;;;8.48;;
2452;SDS011;63678;47.994;7.854;2023-06-22T05:34:07;15.40;;;8.73;;
2452;SDS011;63678;47.994;7.854;2023-06-22T05:37:01;17.17;;;9.57;;
2452;SDS011;63678;47.994;7.854;2023-06-22T05:39:34;16.80;;;9.32;;
2452;SDS011;63678;47.994;7.854;2023-06-22T05:42:09;17.75;;;9.45;;
2452;SDS011;63678;47.994;7.854;2023-06-22T05:44:42;17.80;;;9.35;;
2452;SDS011;63678;47.994;7.854;2023-06-22T05:47:15;18.50;;;9.80;;
2452;SDS011;63678;47.994;7.854;2023-06-22T05:49:48;20.58;;;10.27;;
2452;SDS011;63678;47.994;7.854;2023-06-22T05:52:21;19.48;;;9.95;;
2452;SDS011;63678;47.994;7.854;2023-06-22T05:54:53;20.13;;;9.52;;
2452;SDS011;63678;47.994;7.854;2023-06-22T05:57:48;13.90;;;7.82;;
2452;SDS011;63678;47.994;7.854;2023-06-22T06:00:20;18.37;;;8.70;;
2452;SDS011;63678;47.994;7.854;2023-06-22T06:02:54;18.10;;;9.57;;
2452;SDS011;63678;47.994;7.854;2023-06-22T06:05:27;17.92;;;9.07;;
2452;SDS011;63678;47.994;7.854;2023-06-22T06:08:00;17.02;;;9.27;;
2452;SDS011;63678;47.994;7.854;2023-06-22T06:10:34;18.33;;;9.20;;
2452;SDS011;63678;47.994;7.854;2023-06-22T06:13:07;20.90;;;9.43;;
2452;SDS011;63678;47.994;7.854;2023-06-22T06:15:39;17.63;;;9.02;;
2452;SDS011;63678;47.994;7.854;2023-06-22T06:18:12;19.25;;;10.07;;
2452;SDS011;63678;47.994;7.854;2023-06-22T06:20:45;23.65;;;10.98;;
2452;SDS011;63678;47.994;7.854;2023-06-22T06:23:18;17.48;;;9.98;;
2452;SDS011;63678;47.994;7.854;2023-06-22T06:25:53;24.67;;;11.43;;
2452;SDS011;63678;47.994;7.854;2023-06-22T06:28:26;20.73;;;9.90;;
2452;SDS011;63678;47.994;7.854;2023-06-22T06:30:59;20.38;;;11.18;;
2452;SDS011;63678;47.994;7.854;2023-06-22T06:33:32;18.20;;;10.80;;
2452;SDS011;63678;47.994;7.854;2023-06-22T06:36:05;17.75;;;10.05;;
2452;SDS011;63678;47.994;7.854;2023-06-22T06:38:40;14.63;;;8.83;;
2452;SDS011;63678;47.994;7.854;2023-06-22T06:41:34;18.15;;;10.13;;
2452;SDS011;63678;47.994;7.854;2023-06-22T06:44:14;16.83;;;9.25;;
2452;SDS011;63678;47.994;7.854;2023-06-22T06:46:47;20.52;;;11.05;;
2452;SDS011;63678;47.994;7.854;2023-06-22T06:49:21;17.60;;;11.77;;
2452;SDS011;63678;47.994;7.854;2023-06-22T06:51:54;18.80;;;10.67;;
2452;SDS011;63678;47.994;7.854;2023-06-22T06:54:49;17.38;;;10.93;;
2452;SDS011;63678;47.994;7.854;2023-06-22T06:57:24;18.92;;;11.93;;
2452;SDS011;63678;47.994;7.854;2023-06-22T07:00:01;17.98;;;12.25;;
2452;SDS011;63678;47.994;7.854;2023-06-22T07:02:40;25.50;;;13.00;;
2452;SDS011;63678;47.994;7.854;2023-06-22T07:05:17;21.83;;;11.40;;
2452;SDS011;63678;47.994;7.854;2023-06-22T07:07:49;18.92;;;10.93;;
2452;SDS011;63678;47.994;7.854;2023-06-22T07:10:22;19.60;;;11.30;;
2452;SDS011;63678;47.994;7.854;2023-06-22T07:12:54;16.25;;;10.70;;
2452;SDS011;63678;47.994;7.854;2023-06-22T07:15:27;18.77;;;10.93;;
2452;SDS011;63678;47.994;7.854;2023-06-22T07:18:00;15.33;;;9.60;;
2452;SDS011;63678;47.994;7.854;2023-06-22T07:20:34;16.77;;;9.95;;
2452;SDS011;63678;47.994;7.854;2023-06-22T07:23:06;17.52;;;9.15;;
2452;SDS011;63678;47.994;7.854;2023-06-22T07:25:39;16.27;;;9.35;;
2452;SDS011;63678;47.994;7.854;2023-06-22T07:28:34;16.55;;;9.32;;
2452;SDS011;63678;47.994;7.854;2023-06-22T07:31:10;18.43;;;10.03;;
2452;SDS011;63678;47.994;7.854;2023-06-22T07:33:43;17.73;;;8.90;;
2452;SDS011;63678;47.994;7.854;2023-06-22T07:36:16;15.52;;;9.52;;
2452;SDS011;63678;47.994;7.854;2023-06-22T07:38:49;13.63;;;9.38;;
2452;SDS011;63678;47.994;7.854;2023-06-22T07:41:22;17.40;;;9.63;;
2452;SDS011;63678;47.994;7.854;2023-06-22T07:43:54;17.30;;;9.57;;
2452;SDS011;63678;47.994;7.854;2023-06-22T07:46:27;16.17;;;8.73;;
2452;SDS011;63678;47.994;7.854;2023-06-22T07:49:01;18.80;;;9.60;;
2452;SDS011;63678;47.994;7.854;2023-06-22T07:51:34;16.55;;;8.80;;
2452;SDS011;63678;47.994;7.854;2023-06-22T07:54:08;17.35;;;8.65;;
2452;SDS011;63678;47.994;7.854;2023-06-22T07:56:40;17.27;;;8.40;;
2452;SDS011;63678;47.994;7.854;2023-06-22T07:59:14;14.98;;;8.07;;
2452;SDS011;63678;47.994;7.854;2023-06-22T08:01:46;14.98;;;7.75;;
2452;SDS011;63678;47.994;7.854;2023-06-22T08:04:21;18.52;;;8.48;;
2452;SDS011;63678;47.994;7.854;2023-06-22T08:06:54;17.75;;;8.05;;
2452;SDS011;63678;47.994;7.854;2023-06-22T08:09:30;19.90;;;8.63;;
2452;SDS011;63678;47.994;7.854;2023-06-22T08:12:05;15.00;;;7.70;;
2452;SDS011;63678;47.994;7.854;2023-06-22T08:14:38;17.40;;;8.40;;
2452;SDS011;63678;47.994;7.854;2023-06-22T08:17:11;19.70;;;8.25;;
2452;SDS011;63678;47.994;7.854;2023-06-22T08:19:45;15.27;;;7.72;;
2452;SDS011;63678;47.994;7.854;2023-06-22T08:22:18;15.07;;;8.20;;
2452;SDS011;63678;47.994;7.854;2023-06-22T08:24:51;13.90;;;7.47;;
2452;SDS011;63678;47.994;7.854;2023-06-22T08:27:23;19.70;;;7.90;;
2452;SDS011;63678;47.994;7.854;2023-06-22T08:29:57;14.88;;;7.45;;
2452;SDS011;63678;47.994;7.854;2023-06-22T08:32:31;12.98;;;7.20;;
2452;SDS011;63678;47.994;7.854;2023-06-22T08:35:07;16.13;;;7.40;;
2452;SDS011;63678;47.994;7.854;2023-06-22T08:38:02;15.00;;;8.00;;
2452;SDS011;63678;47.994;7.854;2023-06-22T08:40:34;19.02;;;7.40;;
2452;SDS011;63678;47.994;7.854;2023-06-22T08:43:08;12.90;;;7.03;;
2452;SDS011;63678;47.994;7.854;2023-06-22T08:45:40;15.75;;;7.57;;
2452;SDS011;63678;47.994;7.854;2023-06-22T08:48:33;16.47;;;7.20;;
2452;SDS011;63678;47.994;7.854;2023-06-22T08:51:25;16.83;;;7.53;;
2452;SDS011;63678;47.994;7.854;2023-06-22T08:53:58;14.60;;;7.63;;
2452;SDS011;63678;47.994;7.854;2023-06-22T08:56:33;15.60;;;7.00;;
2452;SDS011;63678;47.994;7.854;2023-06-22T08:59:05;15.88;;;7.30;;
2452;SDS011;63678;47.994;7.854;2023-06-22T09:02:00;15.27;;;8.03;;
2452;SDS011;63678;47.994;7.854;2023-06-22T09:04:52;16.73;;;8.00;;
2452;SDS011;63678;47.994;7.854;2023-06-22T09:07:28;15.90;;;7.63;;
2452;SDS011;63678;47.994;7.854;2023-06-22T09:10:00;13.05;;;7.53;;
2452;SDS011;63678;47.994;7.854;2023-06-22T09:12:35;13.63;;;7.40;;
2452;SDS011;63678;47.994;7.854;2023-06-22T09:15:30;13.37;;;7.33;;
2452;SDS011;63678;47.994;7.854;2023-06-22T09:18:03;16.65;;;7.68;;
2452;SDS011;63678;47.994;7.854;2023-06-22T09:20:36;18.58;;;7.90;;
2452;SDS011;63678;47.994;7.854;2023-06-22T09:23:08;16.52;;;7.20;;
2452;SDS011;63678;47.994;7.854;2023-06-22T09:25:45;17.48;;;6.93;;
2452;SDS011;63678;47.994;7.854;2023-06-22T09:28:19;16.33;;;6.90;;
2452;SDS011;63678;47.994;7.854;2023-06-22T09:30:51;13.98;;;7.75;;
2452;SDS011;63678;47.994;7.854;2023-06-22T09:33:30;14.73;;;7.50;;
2452;SDS011;63678;47.994;7.854;2023-06-22T09:36:02;14.55;;;7.57;;
2452;SDS011;63678;47.994;7.854;2023-06-22T09:38:40;16.85;;;7.65;;
2452;SDS011;63678;47.994;7.854;2023-06-22T09:41:12;17.50;;;7.63;;
2452;SDS011;63678;47.994;7.854;2023-06-22T09:43:45;11.27;;;7.22;;
2452;SDS011;63678;47.994;7.854;2023-06-22T09:46:17;12.50;;;7.63;;
2452;SDS011;63678;47.994;7.854;2023-06-22T09:48:50;14.27;;;7.90;;
2452;SDS011;63678;47.994;7.854;2023-06-22T09:51:24;14.50;;;7.35;;
2452;SDS011;63678;47.994;7.854;2023-06-22T09:53:57;15.33;;;7.20;;
2452;SDS011;63678;47.994;7.854;2023-06-22T09:56:32;16.52;;;8.40;;
2452;SDS011;63678;47.994;7.854;2023-06-22T09:59:04;16.23;;;8.88;;
2452;SDS011;63678;47.994;7.854;2023-06-22T10:01:49;14.02;;;7.57;;
2452;SDS011;63678;47.994;7.854;2023-06-22T10:04:22;14.30;;;7.68;;
2452;SDS011;63678;47.994;7.854;2023-06-22T10:06:56;14.53;;;7.20;;
2452;SDS011;63678;47.994;7.854;2023-06-22T10:09:28;17.10;;;7.40;;
2452;SDS011;63678;47.994;7.854;2023-06-22T10:12:01;15.30;;;8.43;;
2452;SDS011;63678;47.994;7.854;2023-06-22T10:14:33;18.23;;;7.93;;
2452;SDS011;63678;47.994;7.854;2023-06-22T10:17:05;18.48;;;7.85;;
2452;SDS011;63678;47.994;7.854;2023-06-22T10:19:39;17.53;;;8.90;;
2452;SDS011;63678;47.994;7.854;2023-06-22T10:22:13;14.85;;;8.20;;
2452;SDS011;63678;47.994;7.854;2023-06-22T10:24:45;12.63;;;7.50;;
2452;SDS011;63678;47.994;7.854;2023-06-22T10:27:17;16.08;;;8.95;;
2452;SDS011;63678;47.994;7.854;2023-06-22T10:29:50;21.23;;;8.40;;
2452;SDS011;63678;47.994;7.854;2023-06-22T10:32:23;13.97;;;8.57;;
2452;SDS011;63678;47.994;7.854;2023-06-22T10:34:55;15.20;;;8.15;;
2452;SDS011;63678;47.994;7.854;2023-06-22T10:37:30;17.23;;;8.70;;
2452;SDS011;63678;47.994;7.854;2023-06-22T10:40:02;19.33;;;9.15;;
2452;SDS011;63678;47.994;7.854;2023-06-22T10:42:35;20.17;;;8.55;;
2452;SDS011;63678;47.994;7.854;2023-06-22T10:45:08;17.67;;;7.77;;
2452;SDS011;63678;47.994;7.854;2023-06-22T10:47:40;16.35;;;8.23;;
2452;SDS011;63678;47.994;7.854;2023-06-22T10:50:16;15.85;;;8.10;;
2452;SDS011;63678;47.994;7.854;2023-06-22T10:52:49;16.65;;;8.38;;
2452;SDS011;63678;47.994;7.854;2023-06-22T10:55:25;18.80;;;8.32;;
2452;SDS011;63678;47.994;7.854;2023-06-22T10:57:59;15.27;;;8.00;;
2452;SDS011;63678;47.994;7.854;2023-06-22T11:00:32;13.38;;;7.57;;
2452;SDS011;63678;47.994;7.854;2023-06-22T11:03:04;13.73;;;7.22;;
2452;SDS011;63678;47.994;7.854;2023-06-22T11:05:37;15.75;;;8.27;;
2452;SDS011;63678;47.994;7.854;2023-06-22T11:08:09;13.43;;;8.07;;
2452;SDS011;63678;47.994;7.854;2023-06-22T11:10:42;15.20;;;8.33;;
2452;SDS011;63678;47.994;7.854;2023-06-22T11:13:15;15.52;;;8.70;;
2452;SDS011;63678;47.994;7.854;2023-06-22T11:15:47;16.10;;;9.23;;
2452;SDS011;63678;47.994;7.854;2023-06-22T11:18:20;15.23;;;8.48;;
2452;SDS011;63678;47.994;7.854;2023-06-22T11:20:54;15.52;;;9.32;;
2452;SDS011;63678;47.994;7.854;2023-06-22T11:23:27;17.33;;;9.40;;
2452;SDS011;63678;47.994;7.854;2023-06-22T11:25:59;17.13;;;8.45;;
2452;SDS011;63678;47.994;7.854;2023-06-22T11:28:32;20.10;;;9.25;;
2452;SDS011;63678;47.994;7.854;2023-06-22T11:31:04;18.85;;;8.70;;
2452;SDS011;63678;47.994;7.854;2023-06-22T11:33:56;14.02;;;8.85;;
2452;SDS011;63678;47.994;7.854;2023-06-22T11:36:28;15.30;;;8.87;;
2452;SDS011;63678;47.994;7.854;2023-06-22T11:39:04;16.40;;;9.20;;
2452;SDS011;63678;47.994;7.854;2023-06-22T11:41:36;17.92;;;9.23;;
2452;SDS011;63678;47.994;7.854;2023-06-22T11:44:09;20.83;;;9.23;;
2452;SDS011;63678;47.994;7.854;2023-06-22T11:46:41;19.02;;;9.98;;
2452;SDS011;63678;47.994;7.854;2023-06-22T11:49:13;19.80;;;10.10;;
2452;SDS011;63678;47.994;7.854;2023-06-22T11:51:46;15.50;;;9.85;;
2452;SDS011;63678;47.994;7.854;2023-06-22T11:54:19;16.30;;;8.85;;
2452;SDS011;63678;47.994;7.854;2023-06-22T11:56:51;22.20;;;13.55;;
2452;SDS011;63678;47.994;7.854;2023-06-22T11:59:23;19.20;;;11.63;;
2452;SDS011;63678;47.994;7.854;2023-06-22T12:01:56;17.17;;;8.90;;
2452;SDS011;63678;47.994;7.854;2023-06-22T12:04:30;19.10;;;8.82;;
2452;SDS011;63678;47.994;7.854;2023-06-22T12:07:02;16.60;;;8.82;;
2452;SDS011;63678;47.994;7.854;2023-06-22T12:09:35;19.40;;;8.82;;
2452;SDS011;63678;47.994;7.854;2023-06-22T12:12:07;17.80;;;8.50;;
2452;SDS011;63678;47.994;7.854;2023-06-22T12:14:40;20.13;;;8.70;;
2452;SDS011;63678;47.994;7.854;2023-06-22T12:17:12;20.02;;;9.63;;
2452;SDS011;63678;47.994;7.854;2023-06-22T12:19:44;17.33;;;8.23;;
2452;SDS011;63678;47.994;7.854;2023-06-22T12:22:16;20.73;;;8.95;;
2452;SDS011;63678;47.994;7.854;2023-06-22T12:24:49;17.73;;;8.82;;
2452;SDS011;63678;47.994;7.854;2023-06-22T12:27:21;17.97;;;9.13;;
2452;SDS011;63678;47.994;7.854;2023-06-22T12:29:54;17.73;;;9.73;;
2452;SDS011;63678;47.994;7.854;2023-06-22T12:32:26;20.55;;;9.98;;
2452;SDS011;63678;47.994;7.854;2023-06-22T12:34:58;20.00;;;11.20;;
2452;SDS011;63678;47.994;7.854;2023-06-22T12:37:31;19.50;;;9.75;;
2452;SDS011;63678;47.994;7.854;2023-06-22T12:40:04;16.67;;;10.17;;
2452;SDS011;63678;47.994;7.854;2023-06-22T12:42:37;18.67;;;9.85;;
2452;SDS011;63678;47.994;7.854;2023-06-22T12:45:09;20.33;;;9.45;;
2452;SDS011;63678;47.994;7.854;2023-06-22T12:47:41;17.85;;;9.07;;
2452;SDS011;63678;47.994;7.854;2023-06-22T12:50:14;20.30;;;8.43;;
2452;SDS011;63678;47.994;7.854;2023-06-22T12:52:47;17.37;;;7.83;;
2452;SDS011;63678;47.994;7.854;2023-06-22T12:55:19;20.75;;;8.55;;
2452;SDS011;63678;47.994;7.854;2023-06-22T12:57:52;17.17;;;9.32;;
2452;SDS011;63678;47.994;7.854;2023-06-22T13:00:24;29.15;;;9.52;;
2452;SDS011;63678;47.994;7.854;2023-06-22T13:02:56;16.85;;;8.32;;
2452;SDS011;63678;47.994;7.854;2023-06-22T13:05:29;17.27;;;8.20;;
2452;SDS011;63678;47.994;7.854;2023-06-22T13:08:02;16.70;;;8.10;;
2452;SDS011;63678;47.994;7.854;2023-06-22T13:10:35;17.38;;;7.53;;
2452;SDS011;63678;47.994;7.854;2023-06-22T13:13:07;17.00;;;7.45;;
2452;SDS011;63678;47.994;7.854;2023-06-22T13:15:39;20.90;;;8.00;;
2452;SDS011;63678;47.994;7.854;2023-06-22T13:18:12;19.40;;;8.37;;
2452;SDS011;63678;47.994;7.854;2023-06-22T13:20:44;16.42;;;7.65;;
2452;SDS011;63678;47.994;7.854;2023-06-22T13:23:17;15.18;;;7.93;;
2452;SDS011;63678;47.994;7.854;2023-06-22T13:25:49;22.23;;;7.97;;
2452;SDS011;63678;47.994;7.854;2023-06-22T13:28:22;17.50;;;8.35;;
2452;SDS011;63678;47.994;7.854;2023-06-22T13:30:59;18.37;;;7.57;;
2452;SDS011;63678;47.994;7.854;2023-06-22T13:33:31;14.63;;;7.07;;
2452;SDS011;63678;47.994;7.854;2023-06-22T13:36:04;21.80;;;7.50;;
2452;SDS011;63678;47.994;7.854;2023-06-22T13:38:37;15.68;;;7.25;;
2452;SDS011;63678;47.994;7.854;2023-06-22T13:41:10;17.85;;;7.20;;
2452;SDS011;63678;47.994;7.854;2023-06-22T13:43:42;16.13;;;7.50;;
2452;SDS011;63678;47.994;7.854;2023-06-22T13:46:15;18.92;;;7.70;;
2452;SDS011;63678;47.994;7.854;2023-06-22T13:48:48;20.88;;;8.43;;
2452;SDS011;63678;47.994;7.854;2023-06-22T13:51:20;20.30;;;7.90;;
2452;SDS011;63678;47.994;7.854;2023-06-22T13:53:53;17.08;;;6.95;;
2452;SDS011;63678;47.994;7.854;2023-06-22T13:56:25;16.80;;;7.20;;
2452;SDS011;63678;47.994;7.854;2023-06-22T13:58:57;15.90;;;6.32;;
2452;SDS011;63678;47.994;7.854;2023-06-22T14:01:30;13.85;;;6.55;;
2452;SDS011;63678;47.994;7.854;2023-06-22T14:04:02;19.45;;;7.07;;
2452;SDS011;63678;47.994;7.854;2023-06-22T14:06:36;14.00;;;7.53;;
2452;SDS011;63678;47.994;7.854;2023-06-22T14:09:10;13.53;;;6.40;;
2452;SDS011;63678;47.994;7.854;2023-06-22T14:11:42;12.50;;;6.90;;
2452;SDS011;63678;47.994;7.854;2023-06-22T14:14:14;19.30;;;7.50;;
2452;SDS011;63678;47.994;7.854;2023-06-22T14:16:47;20.65;;;7.45;;
2452;SDS011;63678;47.994;7.854;2023-06-22T14:19:21;18.13;;;6.80;;
2452;SDS011;63678;47.994;7.854;2023-06-22T14:21:53;15.43;;;6.77;;
2452;SDS011;63678;47.994;7.854;2023-06-22T14:24:26;17.27;;;7.22;;
2452;SDS011;63678;47.994;7.854;2023-06-22T14:27:01;15.98;;;6.80;;
2452;SDS011;63678;47.994;7.854;2023-06-22T14:29:35;21.65;;;7.60;;
2452;SDS011;63678;47.994;7.854;2023-06-22T14:32:07;20.15;;;7.80;;
2452;SDS011;63678;47.994;7.854;2023-06-22T14:34:40;21.77;;;7.37;;
2452;SDS011;63678;47.994;7.854;2023-06-22T14:37:13;17.88;;;7.38;;
2452;SDS011;63678;47.994;7.854;2023-06-22T14:39:45;13.32;;;6.88;;
2452;SDS011;63678;47.994;7.854;2023-06-22T14:42:18;13.80;;;6.97;;
2452;SDS011;63678;47.994;7.854;2023-06-22T14:44:50;18.33;;;7.25;;
2452;SDS011;63678;47.994;7.854;2023-06-22T14:47:22;17.23;;;6.37;;
2452;SDS011;63678;47.994;7.854;2023-06-22T14:49:55;17.10;;;7.53;;
2452;SDS011;63678;47.994;7.854;2023-06-22T14:52:27;15.88;;;7.05;;
2452;SDS011;63678;47.994;7.854;2023-06-22T14:55:00;18.67;;;6.93;;
2452;SDS011;63678;47.994;7.854;2023-06-22T14:57:32;16.67;;;6.90;;
2452;SDS011;63678;47.994;7.854;2023-06-22T15:00:05;15.97;;;5.93;;
2452;SDS011;63678;47.994;7.854;2023-06-22T15:02:38;17.75;;;6.85;;
2452;SDS011;63678;47.994;7.854;2023-06-22T15:05:10;16.95;;;6.68;;
2452;SDS011;63678;47.994;7.854;2023-06-22T15:07:43;14.38;;;6.03;;
2452;SDS011;63678;47.994;7.854;2023-06-22T15:10:15;19.05;;;6.47;;
2452;SDS011;63678;47.994;7.854;2023-06-22T15:12:48;17.27;;;7.13;;
2452;SDS011;63678;47.994;7.854;2023-06-22T15:15:20;17.60;;;6.03;;
2452;SDS011;63678;47.994;7.854;2023-06-22T15:17:53;18.98;;;6.68;;
2452;SDS011;63678;47.994;7.854;2023-06-22T15:20:25;15.15;;;6.57;;
2452;SDS011;63678;47.994;7.854;2023-06-22T15:22:57;15.00;;;5.93;;
2452;SDS011;63678;47.994;7.854;2023-06-22T15:25:29;20.00;;;5.60;;
2452;SDS011;63678;47.994;7.854;2023-06-22T15:28:02;16.42;;;5.93;;
2452;SDS011;63678;47.994;7.854;2023-06-22T15:30:35;15.05;;;5.70;;
2452;SDS011;63678;47.994;7.854;2023-06-22T15:33:08;17.05;;;6.07;;